Terminal Aerodrome Forecast
Issued by NWS

Home | Current Version | Previous Version | Text Only | Print | Product List | Glossary On
Versions: 1 2 3 4 5 6 7 8 9 10 11 12 13 14 15 16 17
000
FTAK31 PAJN 251100
TAFAKT
TAF
PAKT 251139Z 2512/2612 31005KT P6SM SCT020 SCT150
      TEMPO 2512/2516 P6SM BKN020
     FM252100 33009KT P6SM SCT020 SCT150
     FM260800 VRB04KT P6SM VCFG SCT010 BKN030
      AMD LTD TO CLD VIS AND WIND 2512/2515=

USA.gov is the U.S. government's official web portal to all federal, state and local government web resources and services.